Skip Navigation LinksHome page > Weather > Current weather Skip Navigation Links

Current Weather

Washington Dulles International, Washington

For information only: do not use for flight planning or navigation.
Latest weather
Observation time Tuesday, January 26, 2021 4:31 PM EST
Local time Tuesday, January 26, 2021 5:05 PM EST
Flight conditions Low Instrument Meteorological Conditions
Winds
Wind speed calm
Visibility 0.5 mi.
Present weather mist
Sky condition
Ceiling 300 ft. overcast
Cloud layer overcast 300 ft.
Temperature 37°F
Dewpoint 36°F
Altimeter 29.84 in.Hg
Derived measurements
Relative humidity 96%
Wind chill 37°F
Density altitude -969 ft.
Remarks
Automated weather observing station with precipitation discriminator.
Surface visibility.
METAR KIAD 262131Z 00000KT 1/2SM R01R/P6000FT BR OVC003 03/02 A2984 RMK AO2 SFC VIS 2 1/2 T00280022

Settings

Location code

InnerDrive.Weather 4.0.6770.0 Release CLR 4.0.30319.42000
Copyright ©2018 Inner Drive Technology. All rights reserved. Portions Copyright ©1986-2018 David Braverman.

Find weather

Site navigation


Skip Navigation Links

Place info

Page info

PayPal - The safer, easier way to pay online!

Return home.

Copyright ©2021 Inner Drive Technology. Purveyors of fine, hand-crafted computer software. Page printed 2021-01-26T22:05:13 UTC.